sensor_id;sensor_type;location;lat;lon;timestamp;pressure;altitude;pressure_sealevel;temperature;humidity
75886;BME280;64561;44.018;10.144;2023-06-22T00:00:04;101711.91;;;23.25;66.13
75886;BME280;64561;44.018;10.144;2023-06-22T00:02:38;101705.25;;;23.08;65.91
75886;BME280;64561;44.018;10.144;2023-06-22T00:05:05;101708.78;;;23.02;65.58
75886;BME280;64561;44.018;10.144;2023-06-22T00:07:32;101707.94;;;23.00;65.99
75886;BME280;64561;44.018;10.144;2023-06-22T00:10:00;101713.09;;;23.06;66.49
75886;BME280;64561;44.018;10.144;2023-06-22T00:12:30;101705.25;;;23.06;65.91
75886;BME280;64561;44.018;10.144;2023-06-22T00:14:57;101702.63;;;23.08;66.99
75886;BME280;64561;44.018;10.144;2023-06-22T00:17:24;101712.34;;;22.95;66.18
75886;BME280;64561;44.018;10.144;2023-06-22T00:19:51;101700.16;;;22.94;66.93
75886;BME280;64561;44.018;10.144;2023-06-22T00:22:21;101714.97;;;22.93;66.79
75886;BME280;64561;44.018;10.144;2023-06-22T00:24:56;101706.56;;;22.70;66.33
75886;BME280;64561;44.018;10.144;2023-06-22T00:27:24;101704.97;;;22.59;66.19
75886;BME280;64561;44.018;10.144;2023-06-22T00:29:51;101703.28;;;22.52;65.55
75886;BME280;64561;44.018;10.144;2023-06-22T00:32:19;101709.53;;;22.37;64.32
75886;BME280;64561;44.018;10.144;2023-06-22T00:34:47;101701.56;;;22.51;62.60
75886;BME280;64561;44.018;10.144;2023-06-22T00:37:15;101704.06;;;22.59;62.75
75886;BME280;64561;44.018;10.144;2023-06-22T00:39:43;101697.91;;;22.65;60.83
75886;BME280;64561;44.018;10.144;2023-06-22T00:42:11;101689.19;;;22.67;61.93
75886;BME280;64561;44.018;10.144;2023-06-22T00:44:38;101701.19;;;22.82;64.48
75886;BME280;64561;44.018;10.144;2023-06-22T00:47:06;101695.97;;;22.83;64.81
75886;BME280;64561;44.018;10.144;2023-06-22T00:49:34;101700.28;;;22.83;63.51
75886;BME280;64561;44.018;10.144;2023-06-22T00:52:01;101691.56;;;22.87;64.59
75886;BME280;64561;44.018;10.144;2023-06-22T00:54:29;101686.28;;;22.90;65.36
75886;BME280;64561;44.018;10.144;2023-06-22T00:56:58;101688.88;;;22.92;65.67
75886;BME280;64561;44.018;10.144;2023-06-22T00:59:26;101681.91;;;22.92;64.76
75886;BME280;64561;44.018;10.144;2023-06-22T01:01:53;101682.84;;;22.88;63.48
75886;BME280;64561;44.018;10.144;2023-06-22T01:04:24;101684.63;;;22.85;63.97
75886;BME280;64561;44.018;10.144;2023-06-22T01:10:10;101688.22;;;22.77;64.87
75886;BME280;64561;44.018;10.144;2023-06-22T01:12:44;101689.19;;;22.69;65.13
75886;BME280;64561;44.018;10.144;2023-06-22T01:15:23;101693.50;;;22.70;65.75
75886;BME280;64561;44.018;10.144;2023-06-22T01:17:52;101686.50;;;22.73;65.95
75886;BME280;64561;44.018;10.144;2023-06-22T01:20:21;101687.44;;;22.68;64.49
75886;BME280;64561;44.018;10.144;2023-06-22T01:23:24;101683.34;;;22.47;64.38
75886;BME280;64561;44.018;10.144;2023-06-22T01:26:06;101682.63;;;22.35;65.18
75886;BME280;64561;44.018;10.144;2023-06-22T01:31:17;101681.03;;;22.16;64.97
75886;BME280;64561;44.018;10.144;2023-06-22T01:33:50;101678.41;;;22.22;65.66
75886;BME280;64561;44.018;10.144;2023-06-22T01:36:18;101673.97;;;22.29;64.91
75886;BME280;64561;44.018;10.144;2023-06-22T01:38:47;101688.84;;;22.24;63.72
75886;BME280;64561;44.018;10.144;2023-06-22T01:41:16;101690.56;;;22.26;64.36
75886;BME280;64561;44.018;10.144;2023-06-22T01:43:48;101688.78;;;22.28;64.81
75886;BME280;64561;44.018;10.144;2023-06-22T01:46:16;101691.53;;;22.10;63.87
75886;BME280;64561;44.018;10.144;2023-06-22T01:48:46;101696.72;;;22.14;65.72
75886;BME280;64561;44.018;10.144;2023-06-22T01:51:14;101701.94;;;22.18;65.32
75886;BME280;64561;44.018;10.144;2023-06-22T01:53:41;101697.59;;;22.18;64.94
75886;BME280;64561;44.018;10.144;2023-06-22T01:56:09;101689.69;;;22.23;65.74
75886;BME280;64561;44.018;10.144;2023-06-22T01:58:40;101687.19;;;22.10;64.51
75886;BME280;64561;44.018;10.144;2023-06-22T02:01:12;101695.03;;;22.09;64.89
75886;BME280;64561;44.018;10.144;2023-06-22T02:03:49;101690.66;;;22.11;66.46
75886;BME280;64561;44.018;10.144;2023-06-22T02:06:24;101683.66;;;22.16;65.63
75886;BME280;64561;44.018;10.144;2023-06-22T02:09:00;101673.25;;;22.18;64.96
75886;BME280;64561;44.018;10.144;2023-06-22T02:11:29;101674.22;;;22.06;63.79
75886;BME280;64561;44.018;10.144;2023-06-22T02:13:58;101678.47;;;22.13;63.42
75886;BME280;64561;44.018;10.144;2023-06-22T02:16:26;101692.38;;;22.18;65.30
75886;BME280;64561;44.018;10.144;2023-06-22T02:19:01;101681.91;;;22.21;63.90
75886;BME280;64561;44.018;10.144;2023-06-22T02:21:34;101687.97;;;22.22;63.24
75886;BME280;64561;44.018;10.144;2023-06-22T02:24:01;101699.22;;;22.25;64.52
75886;BME280;64561;44.018;10.144;2023-06-22T02:26:30;101689.72;;;22.21;65.41
75886;BME280;64561;44.018;10.144;2023-06-22T02:29:01;101687.16;;;22.17;64.86
75886;BME280;64561;44.018;10.144;2023-06-22T02:31:28;101685.53;;;22.03;64.73
75886;BME280;64561;44.018;10.144;2023-06-22T02:33:58;101681.22;;;21.98;64.70
75886;BME280;64561;44.018;10.144;2023-06-22T02:36:26;101676.16;;;21.81;64.99
75886;BME280;64561;44.018;10.144;2023-06-22T02:39:00;101674.44;;;21.81;65.60
75886;BME280;64561;44.018;10.144;2023-06-22T02:41:30;101678.78;;;21.82;65.08
75886;BME280;64561;44.018;10.144;2023-06-22T02:43:57;101678.16;;;21.54;66.12
75886;BME280;64561;44.018;10.144;2023-06-22T02:46:25;101679.88;;;21.55;65.94
75886;BME280;64561;44.018;10.144;2023-06-22T02:48:53;101677.38;;;21.35;65.49
75886;BME280;64561;44.018;10.144;2023-06-22T02:51:20;101671.47;;;21.10;63.92
75886;BME280;64561;44.018;10.144;2023-06-22T02:53:48;101672.22;;;21.26;64.82
75886;BME280;64561;44.018;10.144;2023-06-22T02:56:16;101659.31;;;21.15;65.32
75886;BME280;64561;44.018;10.144;2023-06-22T02:58:45;101670.56;;;21.19;64.85
75886;BME280;64561;44.018;10.144;2023-06-22T03:01:12;101667.00;;;21.31;65.18
75886;BME280;64561;44.018;10.144;2023-06-22T03:03:45;101667.81;;;21.43;64.88
75886;BME280;64561;44.018;10.144;2023-06-22T03:06:12;101670.31;;;21.56;64.79
75886;BME280;64561;44.018;10.144;2023-06-22T03:08:41;101654.72;;;21.54;64.92
75886;BME280;64561;44.018;10.144;2023-06-22T03:11:10;101657.41;;;21.40;65.01
75886;BME280;64561;44.018;10.144;2023-06-22T03:13:37;101660.00;;;21.39;65.23
75886;BME280;64561;44.018;10.144;2023-06-22T03:16:06;101653.13;;;21.36;65.18
75886;BME280;64561;44.018;10.144;2023-06-22T03:18:33;101664.31;;;21.46;66.13
75886;BME280;64561;44.018;10.144;2023-06-22T03:21:00;101668.66;;;21.45;66.64
75886;BME280;64561;44.018;10.144;2023-06-22T03:23:30;101665.25;;;21.34;67.11
75886;BME280;64561;44.018;10.144;2023-06-22T03:25:58;101678.25;;;21.36;67.95
75886;BME280;64561;44.018;10.144;2023-06-22T03:28:25;101673.16;;;21.19;66.30
75886;BME280;64561;44.018;10.144;2023-06-22T03:30:52;101685.25;;;21.28;66.29
75886;BME280;64561;44.018;10.144;2023-06-22T03:33:19;101679.31;;;21.07;66.32
75886;BME280;64561;44.018;10.144;2023-06-22T03:35:47;101676.66;;;21.13;66.62
75886;BME280;64561;44.018;10.144;2023-06-22T03:38:14;101671.41;;;21.18;65.24
75886;BME280;64561;44.018;10.144;2023-06-22T03:40:41;101677.47;;;21.21;64.55
75886;BME280;64561;44.018;10.144;2023-06-22T03:43:09;101677.56;;;21.09;63.84
75886;BME280;64561;44.018;10.144;2023-06-22T03:45:36;101673.16;;;21.14;63.44
75886;BME280;64561;44.018;10.144;2023-06-22T03:48:04;101676.63;;;21.15;62.02
75886;BME280;64561;44.018;10.144;2023-06-22T03:50:32;101673.25;;;21.04;62.17
75886;BME280;64561;44.018;10.144;2023-06-22T03:52:59;101676.63;;;21.16;62.63
75886;BME280;64561;44.018;10.144;2023-06-22T03:55:27;101683.50;;;21.28;63.53
75886;BME280;64561;44.018;10.144;2023-06-22T03:57:55;101673.16;;;21.17;62.08
75886;BME280;64561;44.018;10.144;2023-06-22T04:00:24;101677.41;;;21.29;63.76
75886;BME280;64561;44.018;10.144;2023-06-22T04:02:51;101673.94;;;21.33;63.64
75886;BME280;64561;44.018;10.144;2023-06-22T04:05:18;101674.75;;;21.43;64.34
75886;BME280;64561;44.018;10.144;2023-06-22T04:07:46;101668.63;;;21.47;64.82
75886;BME280;64561;44.018;10.144;2023-06-22T04:10:13;101672.97;;;21.50;64.26
75886;BME280;64561;44.018;10.144;2023-06-22T04:12:45;101670.34;;;21.53;64.22
75886;BME280;64561;44.018;10.144;2023-06-22T04:15:12;101669.44;;;21.54;64.34
75886;BME280;64561;44.018;10.144;2023-06-22T04:17:40;101664.28;;;21.52;64.36
75886;BME280;64561;44.018;10.144;2023-06-22T04:20:07;101666.00;;;21.55;63.78
75886;BME280;64561;44.018;10.144;2023-06-22T04:22:34;101658.25;;;21.45;62.76
75886;BME280;64561;44.018;10.144;2023-06-22T04:25:02;101661.69;;;21.48;63.47
75886;BME280;64561;44.018;10.144;2023-06-22T04:27:30;101651.41;;;21.26;64.22
75886;BME280;64561;44.018;10.144;2023-06-22T04:29:57;101652.22;;;21.30;63.66
75886;BME280;64561;44.018;10.144;2023-06-22T04:32:31;101651.50;;;21.15;64.77
75886;BME280;64561;44.018;10.144;2023-06-22T04:34:58;101651.47;;;21.17;65.54
75886;BME280;64561;44.018;10.144;2023-06-22T04:37:27;101643.75;;;21.03;66.61
75886;BME280;64561;44.018;10.144;2023-06-22T04:39:55;101650.59;;;21.19;65.84
75886;BME280;64561;44.018;10.144;2023-06-22T04:42:22;101644.41;;;21.34;67.69
75886;BME280;64561;44.018;10.144;2023-06-22T04:44:50;101640.88;;;21.44;66.47
75886;BME280;64561;44.018;10.144;2023-06-22T04:47:17;101646.88;;;21.56;67.96
75886;BME280;64561;44.018;10.144;2023-06-22T04:49:44;101640.72;;;21.63;69.24
75886;BME280;64561;44.018;10.144;2023-06-22T04:52:12;101636.34;;;21.68;68.99
75886;BME280;64561;44.018;10.144;2023-06-22T04:54:40;101631.97;;;21.72;69.28
75886;BME280;64561;44.018;10.144;2023-06-22T04:57:15;101636.28;;;21.76;69.19
75886;BME280;64561;44.018;10.144;2023-06-22T04:59:42;101649.25;;;21.80;69.58
75886;BME280;64561;44.018;10.144;2023-06-22T05:02:09;101641.63;;;21.59;69.39
75886;BME280;64561;44.018;10.144;2023-06-22T05:04:37;101645.03;;;21.65;69.75
75886;BME280;64561;44.018;10.144;2023-06-22T05:07:08;101648.53;;;21.63;69.60
75886;BME280;64561;44.018;10.144;2023-06-22T05:09:36;101649.41;;;21.65;70.34
75886;BME280;64561;44.018;10.144;2023-06-22T05:12:06;101658.88;;;21.72;70.57
75886;BME280;64561;44.018;10.144;2023-06-22T05:14:37;101663.16;;;21.78;70.39
75886;BME280;64561;44.018;10.144;2023-06-22T05:17:04;101651.16;;;21.60;68.66
75886;BME280;64561;44.018;10.144;2023-06-22T05:19:42;101673.69;;;21.67;69.42
75886;BME280;64561;44.018;10.144;2023-06-22T05:22:12;101678.00;;;21.71;69.71
75886;BME280;64561;44.018;10.144;2023-06-22T05:24:39;101675.38;;;21.74;69.76
75886;BME280;64561;44.018;10.144;2023-06-22T05:27:06;101681.44;;;21.76;70.88
75886;BME280;64561;44.018;10.144;2023-06-22T05:29:34;101684.00;;;21.79;70.99
75886;BME280;64561;44.018;10.144;2023-06-22T05:32:02;101688.34;;;21.80;71.64
75886;BME280;64561;44.018;10.144;2023-06-22T05:34:29;101692.66;;;21.84;72.26
75886;BME280;64561;44.018;10.144;2023-06-22T05:36:57;101708.25;;;21.90;72.72
75886;BME280;64561;44.018;10.144;2023-06-22T05:39:27;101706.47;;;21.92;73.52
75886;BME280;64561;44.018;10.144;2023-06-22T05:41:54;101719.47;;;21.97;73.90
75886;BME280;64561;44.018;10.144;2023-06-22T05:44:21;101722.03;;;22.02;73.88
75886;BME280;64561;44.018;10.144;2023-06-22T05:46:48;101724.59;;;22.05;74.69
75886;BME280;64561;44.018;10.144;2023-06-22T05:49:16;101729.78;;;22.08;72.90
75886;BME280;64561;44.018;10.144;2023-06-22T05:51:44;101736.69;;;22.15;72.42
75886;BME280;64561;44.018;10.144;2023-06-22T05:54:11;101731.44;;;22.20;71.39
75886;BME280;64561;44.018;10.144;2023-06-22T05:56:40;101732.28;;;22.23;71.03
75886;BME280;64561;44.018;10.144;2023-06-22T05:59:07;101725.28;;;22.30;69.80
75886;BME280;64561;44.018;10.144;2023-06-22T06:01:35;101730.44;;;22.36;69.61
75886;BME280;64561;44.018;10.144;2023-06-22T06:04:03;101718.19;;;22.43;69.23
75886;BME280;64561;44.018;10.144;2023-06-22T06:06:31;101709.41;;;22.50;70.74
75886;BME280;64561;44.018;10.144;2023-06-22T06:08:58;101705.84;;;22.55;71.85
75886;BME280;64561;44.018;10.144;2023-06-22T06:11:27;101701.47;;;22.59;71.75
75886;BME280;64561;44.018;10.144;2023-06-22T06:13:54;101701.38;;;22.65;70.48
75886;BME280;64561;44.018;10.144;2023-06-22T06:16:22;101718.59;;;22.80;69.06
75886;BME280;64561;44.018;10.144;2023-06-22T06:18:49;101727.16;;;22.91;67.84
75886;BME280;64561;44.018;10.144;2023-06-22T06:21:17;101715.78;;;22.98;67.17
75886;BME280;64561;44.018;10.144;2023-06-22T06:23:45;101705.28;;;23.03;66.30
75886;BME280;64561;44.018;10.144;2023-06-22T06:26:12;101711.25;;;23.13;65.20
75886;BME280;64561;44.018;10.144;2023-06-22T06:28:39;101708.53;;;23.19;64.38
75886;BME280;64561;44.018;10.144;2023-06-22T06:31:08;101702.38;;;23.26;65.34
75886;BME280;64561;44.018;10.144;2023-06-22T06:33:36;101706.44;;;23.44;67.75
75886;BME280;64561;44.018;10.144;2023-06-22T06:36:03;101687.13;;;23.54;66.91
75886;BME280;64561;44.018;10.144;2023-06-22T06:38:31;101690.56;;;23.56;66.80
75886;BME280;64561;44.018;10.144;2023-06-22T06:40:58;101693.09;;;23.62;63.86
75886;BME280;64561;44.018;10.144;2023-06-22T06:43:26;101697.25;;;23.76;63.51
75886;BME280;64561;44.018;10.144;2023-06-22T06:45:53;101695.28;;;23.88;63.15
75886;BME280;64561;44.018;10.144;2023-06-22T06:48:21;101698.53;;;24.03;60.04
75886;BME280;64561;44.018;10.144;2023-06-22T06:50:48;101709.59;;;24.15;59.90
75886;BME280;64561;44.018;10.144;2023-06-22T06:53:15;101714.53;;;24.32;60.71
75886;BME280;64561;44.018;10.144;2023-06-22T06:55:42;101720.56;;;24.37;61.17
75886;BME280;64561;44.018;10.144;2023-06-22T06:58:12;101724.88;;;24.40;60.05
75886;BME280;64561;44.018;10.144;2023-06-22T07:00:40;101725.59;;;24.48;58.99
75886;BME280;64561;44.018;10.144;2023-06-22T07:03:08;101725.47;;;24.56;59.40
75886;BME280;64561;44.018;10.144;2023-06-22T07:05:35;101722.59;;;24.68;59.10
75886;BME280;64561;44.018;10.144;2023-06-22T07:08:03;101729.47;;;24.74;58.55
75886;BME280;64561;44.018;10.144;2023-06-22T07:10:30;101733.72;;;24.79;59.78
75886;BME280;64561;44.018;10.144;2023-06-22T07:12:58;101737.06;;;24.86;60.22
75886;BME280;64561;44.018;10.144;2023-06-22T07:15:25;101744.00;;;24.87;58.86
75886;BME280;64561;44.018;10.144;2023-06-22T07:17:52;101739.44;;;24.97;54.66
75886;BME280;64561;44.018;10.144;2023-06-22T07:20:19;101731.56;;;24.98;52.20
75886;BME280;64561;44.018;10.144;2023-06-22T07:22:47;101739.28;;;25.04;53.95
75886;BME280;64561;44.018;10.144;2023-06-22T07:25:14;101738.38;;;25.05;54.02
75886;BME280;64561;44.018;10.144;2023-06-22T07:30:24;101733.38;;;25.37;50.15
75886;BME280;64561;44.018;10.144;2023-06-22T07:32:51;101729.41;;;25.56;52.15
75886;BME280;64561;44.018;10.144;2023-06-22T07:35:18;101726.59;;;25.64;50.00
75886;BME280;64561;44.018;10.144;2023-06-22T07:37:46;101714.94;;;25.75;49.37
75886;BME280;64561;44.018;10.144;2023-06-22T07:40:13;101715.81;;;25.76;52.18
75886;BME280;64561;44.018;10.144;2023-06-22T07:42:40;101705.50;;;25.68;52.21
75886;BME280;64561;44.018;10.144;2023-06-22T07:45:10;101702.94;;;25.65;51.94
75886;BME280;64561;44.018;10.144;2023-06-22T07:47:38;101709.78;;;25.72;50.55
75886;BME280;64561;44.018;10.144;2023-06-22T07:50:05;101709.59;;;25.82;50.66
75886;BME280;64561;44.018;10.144;2023-06-22T07:52:32;101710.22;;;25.90;50.57
75886;BME280;64561;44.018;10.144;2023-06-22T07:55:00;101706.75;;;25.89;50.82
75886;BME280;64561;44.018;10.144;2023-06-22T07:57:30;101701.56;;;25.88;51.24
75886;BME280;64561;44.018;10.144;2023-06-22T08:00:05;101705.72;;;25.96;51.71
75886;BME280;64561;44.018;10.144;2023-06-22T08:02:45;101702.00;;;26.04;51.33
75886;BME280;64561;44.018;10.144;2023-06-22T08:05:15;101705.31;;;26.10;50.85
75886;BME280;64561;44.018;10.144;2023-06-22T08:07:45;101700.13;;;26.09;50.39
75886;BME280;64561;44.018;10.144;2023-06-22T08:10:15;101696.50;;;26.13;52.19
75886;BME280;64561;44.018;10.144;2023-06-22T08:12:42;101694.31;;;26.29;44.41
75886;BME280;64561;44.018;10.144;2023-06-22T08:15:10;101688.81;;;26.38;46.99
75886;BME280;64561;44.018;10.144;2023-06-22T08:17:38;101698.16;;;26.48;47.59
75886;BME280;64561;44.018;10.144;2023-06-22T08:20:07;101689.78;;;26.66;49.58
75886;BME280;64561;44.018;10.144;2023-06-22T08:22:40;101680.88;;;26.72;44.65
75886;BME280;64561;44.018;10.144;2023-06-22T08:25:08;101670.88;;;26.83;45.86
75886;BME280;64561;44.018;10.144;2023-06-22T08:27:36;101678.75;;;26.83;46.01
75886;BME280;64561;44.018;10.144;2023-06-22T08:30:04;101684.06;;;26.82;45.58
75886;BME280;64561;44.018;10.144;2023-06-22T08:32:32;101676.19;;;26.82;43.02
75886;BME280;64561;44.018;10.144;2023-06-22T08:35:00;101685.31;;;26.98;46.26
75886;BME280;64561;44.018;10.144;2023-06-22T08:37:31;101682.19;;;27.13;46.82
75886;BME280;64561;44.018;10.144;2023-06-22T08:40:04;101691.69;;;27.47;46.04
75886;BME280;64561;44.018;10.144;2023-06-22T08:42:36;101701.09;;;27.54;46.05
75886;BME280;64561;44.018;10.144;2023-06-22T08:45:05;101706.00;;;27.65;45.90
75886;BME280;64561;44.018;10.144;2023-06-22T08:47:34;101704.78;;;27.75;44.09
75886;BME280;64561;44.018;10.144;2023-06-22T08:50:01;101711.66;;;27.79;44.43
75886;BME280;64561;44.018;10.144;2023-06-22T08:52:33;101718.06;;;27.97;45.46
75886;BME280;64561;44.018;10.144;2023-06-22T08:55:01;101729.66;;;27.92;44.60
75886;BME280;64561;44.018;10.144;2023-06-22T08:57:33;101724.63;;;27.86;43.67
75886;BME280;64561;44.018;10.144;2023-06-22T09:00:00;101725.63;;;27.81;43.59
75886;BME280;64561;44.018;10.144;2023-06-22T09:02:34;101712.59;;;27.78;45.20
75886;BME280;64561;44.018;10.144;2023-06-22T09:05:03;101710.81;;;27.79;44.68
75886;BME280;64561;44.018;10.144;2023-06-22T09:07:32;101706.25;;;27.84;45.83
75886;BME280;64561;44.018;10.144;2023-06-22T09:10:01;101694.72;;;27.88;44.94
75886;BME280;64561;44.018;10.144;2023-06-22T09:12:33;101688.69;;;27.85;44.62
75886;BME280;64561;44.018;10.144;2023-06-22T09:15:01;101693.97;;;27.85;48.01
75886;BME280;64561;44.018;10.144;2023-06-22T09:17:34;101680.78;;;27.86;46.12
75886;BME280;64561;44.018;10.144;2023-06-22T09:20:03;101669.53;;;27.81;48.01
75886;BME280;64561;44.018;10.144;2023-06-22T09:22:34;101657.34;;;27.78;47.95
75886;BME280;64561;44.018;10.144;2023-06-22T09:25:01;101639.22;;;27.69;48.08
75886;BME280;64561;44.018;10.144;2023-06-22T09:27:34;101634.88;;;27.68;48.03
75886;BME280;64561;44.018;10.144;2023-06-22T09:30:02;101626.91;;;27.70;49.22
75886;BME280;64561;44.018;10.144;2023-06-22T09:32:32;101622.38;;;27.75;49.35
75886;BME280;64561;44.018;10.144;2023-06-22T09:35:04;101605.38;;;27.85;48.41
75886;BME280;64561;44.018;10.144;2023-06-22T09:37:33;101594.28;;;28.00;49.50
75886;BME280;64561;44.018;10.144;2023-06-22T09:40:01;101590.34;;;28.12;48.93
75886;BME280;64561;44.018;10.144;2023-06-22T09:42:30;101580.63;;;28.14;49.96
75886;BME280;64561;44.018;10.144;2023-06-22T09:44:57;101580.28;;;28.23;50.08
75886;BME280;64561;44.018;10.144;2023-06-22T09:47:25;101580.44;;;28.42;50.21
75886;BME280;64561;44.018;10.144;2023-06-22T09:49:52;101578.03;;;28.60;50.57
75886;BME280;64561;44.018;10.144;2023-06-22T09:52:19;101575.22;;;28.64;49.59
75886;BME280;64561;44.018;10.144;2023-06-22T09:54:49;101574.66;;;28.56;50.37
75886;BME280;64561;44.018;10.144;2023-06-22T09:57:17;101575.13;;;28.44;47.67
75886;BME280;64561;44.018;10.144;2023-06-22T09:59:44;101586.78;;;28.60;50.09
75886;BME280;64561;44.018;10.144;2023-06-22T10:02:11;101590.53;;;28.77;49.51
75886;BME280;64561;44.018;10.144;2023-06-22T10:04:38;101596.34;;;28.85;49.35
75886;BME280;64561;44.018;10.144;2023-06-22T10:07:07;101587.69;;;29.03;45.73
75886;BME280;64561;44.018;10.144;2023-06-22T10:09:34;101591.72;;;29.34;47.47
75886;BME280;64561;44.018;10.144;2023-06-22T10:12:02;101603.78;;;29.39;47.71
75886;BME280;64561;44.018;10.144;2023-06-22T10:14:29;101613.00;;;29.29;46.43
75886;BME280;64561;44.018;10.144;2023-06-22T10:16:56;101614.53;;;29.35;46.80
75886;BME280;64561;44.018;10.144;2023-06-22T10:19:26;101616.72;;;29.46;45.80
75886;BME280;64561;44.018;10.144;2023-06-22T10:21:53;101621.25;;;29.42;45.06
75886;BME280;64561;44.018;10.144;2023-06-22T10:24:20;101625.34;;;29.49;44.04
75886;BME280;64561;44.018;10.144;2023-06-22T10:26:48;101632.69;;;29.43;45.09
75886;BME280;64561;44.018;10.144;2023-06-22T10:29:15;101639.66;;;29.44;45.00
75886;BME280;64561;44.018;10.144;2023-06-22T10:31:43;101633.97;;;29.32;44.81
75886;BME280;64561;44.018;10.144;2023-06-22T10:34:11;101632.06;;;29.36;47.27
75886;BME280;64561;44.018;10.144;2023-06-22T10:36:38;101638.25;;;29.35;42.52
75886;BME280;64561;44.018;10.144;2023-06-22T10:39:05;101635.19;;;29.24;43.82
75886;BME280;64561;44.018;10.144;2023-06-22T10:41:33;101633.91;;;29.12;42.67
75886;BME280;64561;44.018;10.144;2023-06-22T10:44:00;101649.13;;;29.05;42.91
75886;BME280;64561;44.018;10.144;2023-06-22T10:46:27;101647.09;;;29.12;43.08
75886;BME280;64561;44.018;10.144;2023-06-22T10:48:54;101638.28;;;29.13;43.39
75886;BME280;64561;44.018;10.144;2023-06-22T10:51:24;101639.88;;;29.17;41.95
75886;BME280;64561;44.018;10.144;2023-06-22T10:53:52;101629.94;;;29.24;44.30
75886;BME280;64561;44.018;10.144;2023-06-22T10:56:19;101617.94;;;29.16;39.73
75886;BME280;64561;44.018;10.144;2023-06-22T10:58:46;101619.00;;;29.12;40.36
75886;BME280;64561;44.018;10.144;2023-06-22T11:01:14;101604.19;;;29.08;41.72
75886;BME280;64561;44.018;10.144;2023-06-22T11:04:00;101600.47;;;29.34;43.83
75886;BME280;64561;44.018;10.144;2023-06-22T11:06:28;101592.44;;;29.58;43.94
75886;BME280;64561;44.018;10.144;2023-06-22T11:08:56;101584.66;;;29.75;46.12
75886;BME280;64561;44.018;10.144;2023-06-22T11:11:32;101580.75;;;29.84;45.48
75886;BME280;64561;44.018;10.144;2023-06-22T11:14:00;101579.56;;;29.91;44.28
75886;BME280;64561;44.018;10.144;2023-06-22T11:16:27;101567.50;;;29.85;42.51
75886;BME280;64561;44.018;10.144;2023-06-22T11:18:54;101566.38;;;29.91;41.75
75886;BME280;64561;44.018;10.144;2023-06-22T11:21:22;101561.81;;;30.14;42.84
75886;BME280;64561;44.018;10.144;2023-06-22T11:23:49;101559.47;;;30.26;41.21
75886;BME280;64561;44.018;10.144;2023-06-22T11:26:17;101561.41;;;30.42;43.60
75886;BME280;64561;44.018;10.144;2023-06-22T11:28:44;101569.50;;;30.39;41.08
75886;BME280;64561;44.018;10.144;2023-06-22T11:31:12;101569.97;;;30.47;40.04
75886;BME280;64561;44.018;10.144;2023-06-22T11:33:42;101564.69;;;30.47;40.66
75886;BME280;64561;44.018;10.144;2023-06-22T11:36:12;101570.38;;;30.57;39.66
75886;BME280;64561;44.018;10.144;2023-06-22T11:38:39;101570.84;;;30.65;42.08
75886;BME280;64561;44.018;10.144;2023-06-22T11:41:07;101559.38;;;30.66;40.31
75886;BME280;64561;44.018;10.144;2023-06-22T11:43:34;101549.72;;;30.65;42.24
75886;BME280;64561;44.018;10.144;2023-06-22T11:46:03;101550.41;;;30.68;41.79
75886;BME280;64561;44.018;10.144;2023-06-22T11:48:30;101553.94;;;30.69;42.30
75886;BME280;64561;44.018;10.144;2023-06-22T11:50:57;101553.16;;;30.67;43.62
75886;BME280;64561;44.018;10.144;2023-06-22T11:53:26;101552.84;;;30.73;42.18
75886;BME280;64561;44.018;10.144;2023-06-22T11:55:54;101551.22;;;30.70;43.17
75886;BME280;64561;44.018;10.144;2023-06-22T11:58:22;101551.06;;;30.73;43.28
75886;BME280;64561;44.018;10.144;2023-06-22T12:00:49;101545.63;;;30.76;42.25
75886;BME280;64561;44.018;10.144;2023-06-22T12:03:19;101545.88;;;30.72;42.51
75886;BME280;64561;44.018;10.144;2023-06-22T12:05:47;101548.56;;;30.70;42.02
75886;BME280;64561;44.018;10.144;2023-06-22T12:08:14;101552.91;;;30.71;41.82
75886;BME280;64561;44.018;10.144;2023-06-22T12:10:41;101557.19;;;30.74;43.75
75886;BME280;64561;44.018;10.144;2023-06-22T12:13:08;101563.47;;;30.71;43.37
75886;BME280;64561;44.018;10.144;2023-06-22T12:15:36;101567.22;;;30.67;45.95
75886;BME280;64561;44.018;10.144;2023-06-22T12:18:03;101580.53;;;30.66;43.60
75886;BME280;64561;44.018;10.144;2023-06-22T12:20:30;101573.75;;;30.60;43.69
75886;BME280;64561;44.018;10.144;2023-06-22T12:22:58;101566.13;;;30.54;44.44
75886;BME280;64561;44.018;10.144;2023-06-22T12:25:25;101563.81;;;30.46;43.04
75886;BME280;64561;44.018;10.144;2023-06-22T12:27:53;101572.25;;;30.36;42.41
75886;BME280;64561;44.018;10.144;2023-06-22T12:30:21;101575.25;;;30.28;43.46
75886;BME280;64561;44.018;10.144;2023-06-22T12:32:48;101585.28;;;30.20;43.59
75886;BME280;64561;44.018;10.144;2023-06-22T12:35:16;101583.91;;;30.11;45.64
75886;BME280;64561;44.018;10.144;2023-06-22T12:37:43;101579.97;;;29.82;42.26
75886;BME280;64561;44.018;10.144;2023-06-22T12:40:11;101580.84;;;29.62;42.87
75886;BME280;64561;44.018;10.144;2023-06-22T12:42:38;101599.59;;;29.54;46.17
75886;BME280;64561;44.018;10.144;2023-06-22T12:45:06;101608.41;;;29.55;44.63
75886;BME280;64561;44.018;10.144;2023-06-22T12:47:33;101606.88;;;29.49;43.81
75886;BME280;64561;44.018;10.144;2023-06-22T12:50:00;101607.41;;;29.37;45.77
75886;BME280;64561;44.018;10.144;2023-06-22T12:52:32;101602.19;;;29.35;45.25
75886;BME280;64561;44.018;10.144;2023-06-22T12:54:59;101603.16;;;29.33;46.35